Time,TemperatureF,DewpointF,PressureIn,WindDirection,WindDirectionDegrees,WindSpeedMPH,WindSpeedGustMPH,Humidity,HourlyPrecipIn,Conditions,Clouds,dailyrainin,SoftwareType,DateUTC
2013-04-15 00:03:00,54.3,46.9,30.06,NW,314,3.0,6.0,76,0.00,,,0.00,WeatherCatV1.15B25,2013-04-15 04:03:00,
2013-04-15 00:08:00,54.2,46.8,30.05,WSW,247,5.0,8.0,76,0.00,,,0.00,WeatherCatV1.15B25,2013-04-15 04:08:00,
2013-04-15 00:13:00,54.0,47.0,30.05,SW,219,2.0,8.0,77,0.00,,,0.00,WeatherCatV1.15B25,2013-04-15 04:13:00,
2013-04-15 00:18:00,53.8,46.8,30.05,SW,233,4.0,10.0,77,0.00,,,0.00,WeatherCatV1.15B25,2013-04-15 04:18:00,
2013-04-15 00:23:00,53.7,47.0,30.05,East,98,6.0,6.0,78,0.00,,,0.00,WeatherCatV1.15B25,2013-04-15 04:23:00,
2013-04-15 00:28:00,53.6,47.2,30.05,WSW,253,6.0,7.0,79,0.00,,,0.00,WeatherCatV1.15B25,2013-04-15 04:28:00,
2013-04-15 00:33:00,53.5,47.1,30.05,South,174,2.0,3.0,79,0.00,,,0.00,WeatherCatV1.15B25,2013-04-15 04:33:00,
2013-04-15 00:38:00,53.4,47.1,30.05,ESE,113,2.0,4.0,79,0.00,,,0.00,WeatherCatV1.15B25,2013-04-15 04:38:00,
2013-04-15 00:43:00,53.3,47.0,30.05,SSW,194,0.0,4.0,79,0.00,,,0.00,WeatherCatV1.15B25,2013-04-15 04:43:00,
2013-04-15 00:48:00,53.2,47.2,30.05,SW,221,1.0,2.0,80,0.00,,,0.00,WeatherCatV1.15B25,2013-04-15 04:48:00,
2013-04-15 00:53:00,53.0,47.7,30.05,SW,225,0.0,4.0,82,0.00,,,0.00,WeatherCatV1.15B25,2013-04-15 04:53:00,
2013-04-15 00:58:00,52.8,47.8,30.04,South,183,0.0,3.0,83,0.00,,,0.00,WeatherCatV1.15B25,2013-04-15 04:58:00,
2013-04-15 01:03:00,52.6,47.9,30.04,WNW,283,1.0,2.0,84,0.00,,,0.00,WeatherCatV1.15B25,2013-04-15 05:03:00,
2013-04-15 01:08:00,52.5,48.1,30.05,West,259,0.0,2.0,85,0.00,,,0.00,WeatherCatV1.15B25,2013-04-15 05:08:00,
2013-04-15 01:13:00,52.4,48.0,30.05,WSW,240,4.0,5.0,85,0.00,,,0.00,WeatherCatV1.15B25,2013-04-15 05:13:00,
2013-04-15 01:18:00,52.3,48.2,30.05,SW,229,0.0,3.0,86,0.00,,,0.00,WeatherCatV1.15B25,2013-04-15 05:18:00,
2013-04-15 01:23:00,52.2,48.4,30.05,WNW,285,0.0,1.0,87,0.00,,,0.00,WeatherCatV1.15B25,2013-04-15 05:23:00,
2013-04-15 01:28:00,52.1,48.7,30.05,West,273,1.0,2.0,88,0.00,,,0.00,WeatherCatV1.15B25,2013-04-15 05:28:00,
2013-04-15 01:33:00,51.9,48.8,30.05,NW,304,1.0,2.0,89,0.00,,,0.00,WeatherCatV1.15B25,2013-04-15 05:33:00,
2013-04-15 01:38:00,51.8,49.0,30.05,SW,229,0.0,1.0,90,0.00,,,0.00,WeatherCatV1.15B25,2013-04-15 05:38:00,
2013-04-15 01:43:00,51.6,49.1,30.05,NW,304,5.0,5.0,91,0.00,,,0.00,WeatherCatV1.15B25,2013-04-15 05:43:00,
2013-04-15 01:48:00,51.4,49.2,30.05,WNW,287,0.0,0.0,92,0.00,,,0.00,WeatherCatV1.15B25,2013-04-15 05:48:00,
2013-04-15 01:53:00,51.4,49.2,30.05,WNW,282,0.0,0.0,92,0.00,,,0.00,WeatherCatV1.15B25,2013-04-15 05:53:00,
2013-04-15 01:58:00,51.3,49.3,30.05,WNW,282,0.0,0.0,93,0.00,,,0.01,WeatherCatV1.15B25,2013-04-15 05:58:00,
2013-04-15 02:03:00,51.3,49.3,30.05,WSW,252,5.0,5.0,93,0.00,,,0.01,WeatherCatV1.15B25,2013-04-15 06:03:00,
2013-04-15 02:08:00,51.2,49.2,30.04,WSW,255,0.0,0.0,93,0.00,,,0.01,WeatherCatV1.15B25,2013-04-15 06:08:00,
2013-04-15 02:13:00,51.1,49.1,30.04,SW,227,0.0,3.0,93,0.00,,,0.01,WeatherCatV1.15B25,2013-04-15 06:13:00,
2013-04-15 02:18:00,51.1,49.1,30.04,West,271,1.0,2.0,93,0.00,,,0.02,WeatherCatV1.15B25,2013-04-15 06:18:00,
2013-04-15 02:23:00,51.0,49.3,30.04,West,278,1.0,2.0,94,0.00,,,0.02,WeatherCatV1.15B25,2013-04-15 06:23:00,
2013-04-15 02:28:00,51.0,49.3,30.04,West,267,1.0,1.0,94,0.00,,,0.02,WeatherCatV1.15B25,2013-04-15 06:28:00,
2013-04-15 02:33:00,51.1,49.4,30.04,WSW,242,1.0,1.0,94,0.00,,,0.02,WeatherCatV1.15B25,2013-04-15 06:33:00,
2013-04-15 02:43:00,51.1,49.4,30.04,SW,231,1.0,5.0,94,0.00,,,0.02,WeatherCatV1.15B25,2013-04-15 06:43:00,
2013-04-15 02:48:00,51.1,49.4,30.03,West,264,2.0,4.0,94,0.00,,,0.02,WeatherCatV1.15B25,2013-04-15 06:48:00,
2013-04-15 02:53:00,51.1,49.4,30.03,West,264,1.0,1.0,94,0.00,,,0.02,WeatherCatV1.15B25,2013-04-15 06:53:00,
2013-04-15 02:58:00,51.1,49.4,30.03,SW,221,2.0,6.0,94,0.00,,,0.02,WeatherCatV1.15B25,2013-04-15 06:58:00,
2013-04-15 03:00:00,51.1,49.4,30.03,WSW,246,2.0,6.0,94,0.00,,,0.00,WeatherCatV1.15B25,2013-04-15 07:00:00,
2013-04-15 03:03:00,51.1,49.7,30.03,WSW,244,0.0,2.0,95,0.00,,,0.03,WeatherCatV1.15B25,2013-04-15 07:03:00,
2013-04-15 03:05:00,51.1,49.7,30.03,WSW,255,2.0,2.0,95,0.00,,,0.00,WeatherCatV1.15B25,2013-04-15 07:05:00,
2013-04-15 03:10:00,51.2,49.8,30.03,West,262,2.0,6.0,95,0.00,,,0.00,WeatherCatV1.15B25,2013-04-15 07:10:00,
2013-04-15 03:15:00,51.2,49.8,30.03,West,266,2.0,4.0,95,0.00,,,0.00,WeatherCatV1.15B25,2013-04-15 07:15:00,
2013-04-15 03:20:00,51.3,49.9,30.03,WNW,284,1.0,2.0,95,0.00,,,0.00,WeatherCatV1.15B25,2013-04-15 07:20:00,
2013-04-15 03:25:00,51.3,49.9,30.03,WNW,297,1.0,3.0,95,0.00,,,0.00,WeatherCatV1.15B25,2013-04-15 07:25:00,
2013-04-15 03:30:00,51.3,49.9,30.03,West,277,1.0,3.0,95,0.00,,,0.00,WeatherCatV1.15B25,2013-04-15 07:30:00,
2013-04-15 03:43:00,51.3,49.9,30.03,West,279,1.0,0.0,95,0.00,,,0.00,WeatherCatV1.15B25,2013-04-15 07:43:00,
2013-04-15 03:48:00,51.5,50.1,30.03,West,281,0.0,0.0,95,0.00,,,0.03,WeatherCatV1.15B25,2013-04-15 07:48:00,
2013-04-15 03:53:00,51.5,50.1,30.04,West,281,0.0,0.0,95,0.00,,,0.03,WeatherCatV1.15B25,2013-04-15 07:53:00,
2013-04-15 04:03:00,51.5,50.1,30.04,West,281,0.0,0.0,95,0.00,,,0.03,WeatherCatV1.15B25,2013-04-15 08:03:00,
2013-04-15 04:08:00,51.5,50.1,30.04,West,281,0.0,0.0,95,0.00,,,0.03,WeatherCatV1.15B25,2013-04-15 08:08:00,
2013-04-15 04:13:00,51.5,50.1,30.04,West,281,0.0,0.0,95,0.00,,,0.03,WeatherCatV1.15B25,2013-04-15 08:13:00,
2013-04-15 04:23:00,51.5,50.1,30.04,West,281,0.0,0.0,95,0.00,,,0.03,WeatherCatV1.15B25,2013-04-15 08:23:00,
2013-04-15 04:28:00,51.5,50.1,30.03,West,281,0.0,0.0,95,0.00,,,0.03,WeatherCatV1.15B25,2013-04-15 08:28:00,
2013-04-15 04:38:00,51.5,50.1,30.03,West,281,0.0,0.0,95,0.00,,,0.04,WeatherCatV1.15B25,2013-04-15 08:38:00,
2013-04-15 04:43:00,51.5,50.1,30.03,WNW,286,0.0,0.0,95,0.00,,,0.04,WeatherCatV1.15B25,2013-04-15 08:43:00,
2013-04-15 04:48:00,51.5,50.1,30.03,WNW,286,0.0,0.0,95,0.00,,,0.04,WeatherCatV1.15B25,2013-04-15 08:48:00,
2013-04-15 04:53:00,51.5,50.1,30.04,WNW,286,0.0,0.0,95,0.00,,,0.04,WeatherCatV1.15B25,2013-04-15 08:53:00,
2013-04-15 04:58:00,51.6,50.2,30.04,WNW,284,0.0,1.0,95,0.00,,,0.04,WeatherCatV1.15B25,2013-04-15 08:58:00,
2013-04-15 05:03:00,51.6,50.2,30.03,West,261,0.0,2.0,95,0.00,,,0.04,WeatherCatV1.15B25,2013-04-15 09:03:00,
2013-04-15 05:08:00,51.7,50.3,30.04,West,261,0.0,0.0,95,0.00,,,0.04,WeatherCatV1.15B25,2013-04-15 09:08:00,
2013-04-15 05:13:00,51.6,50.2,30.04,WNW,287,0.0,0.0,95,0.00,,,0.04,WeatherCatV1.15B25,2013-04-15 09:13:00,
2013-04-15 05:18:00,51.7,50.3,30.04,WNW,287,0.0,0.0,95,0.00,,,0.04,WeatherCatV1.15B25,2013-04-15 09:18:00,
2013-04-15 05:23:00,51.7,50.3,30.04,WNW,289,2.0,2.0,95,0.00,,,0.04,WeatherCatV1.15B25,2013-04-15 09:23:00,
2013-04-15 05:28:00,51.7,50.3,30.04,West,277,1.0,2.0,95,0.00,,,0.04,WeatherCatV1.15B25,2013-04-15 09:28:00,
2013-04-15 05:33:00,51.7,50.3,30.04,West,277,0.0,0.0,95,0.00,,,0.04,WeatherCatV1.15B25,2013-04-15 09:33:00,
2013-04-15 05:38:00,51.8,50.4,30.04,West,278,0.0,0.0,95,0.00,,,0.04,WeatherCatV1.15B25,2013-04-15 09:38:00,
2013-04-15 05:43:00,51.8,50.4,30.05,West,278,0.0,0.0,95,0.00,,,0.04,WeatherCatV1.15B25,2013-04-15 09:43:00,
2013-04-15 05:48:00,51.8,50.4,30.05,West,268,0.0,0.0,95,0.00,,,0.04,WeatherCatV1.15B25,2013-04-15 09:48:00,
2013-04-15 05:53:00,51.9,50.5,30.05,West,268,0.0,0.0,95,0.00,,,0.04,WeatherCatV1.15B25,2013-04-15 09:53:00,
2013-04-15 05:58:00,51.9,50.5,30.05,WSW,240,1.0,2.0,95,0.00,,,0.04,WeatherCatV1.15B25,2013-04-15 09:58:00,
2013-04-15 06:03:00,51.9,50.5,30.05,West,281,0.0,0.0,95,0.00,,,0.04,WeatherCatV1.15B25,2013-04-15 10:03:00,
2013-04-15 06:08:00,51.9,50.5,30.05,West,277,0.0,0.0,95,0.00,,,0.04,WeatherCatV1.15B25,2013-04-15 10:08:00,
2013-04-15 06:13:00,51.9,50.8,30.05,WSW,240,0.0,1.0,96,0.00,,,0.04,WeatherCatV1.15B25,2013-04-15 10:13:00,
2013-04-15 06:18:00,51.9,50.8,30.06,WSW,253,0.0,0.0,96,0.00,,,0.04,WeatherCatV1.15B25,2013-04-15 10:18:00,
2013-04-15 06:28:00,51.8,50.7,30.06,West,261,0.0,0.0,96,0.00,,,0.04,WeatherCatV1.15B25,2013-04-15 10:28:00,
2013-04-15 06:33:00,51.8,50.7,30.07,West,268,0.0,3.0,96,0.00,,,0.04,WeatherCatV1.15B25,2013-04-15 10:33:00,
2013-04-15 06:38:00,51.8,50.7,30.07,WNW,289,2.0,2.0,96,0.00,,,0.04,WeatherCatV1.15B25,2013-04-15 10:38:00,
2013-04-15 06:43:00,51.8,50.7,30.07,SW,235,0.0,1.0,96,0.00,,,0.04,WeatherCatV1.15B25,2013-04-15 10:43:00,
2013-04-15 06:48:00,51.7,50.6,30.07,SW,221,1.0,3.0,96,0.00,,,0.04,WeatherCatV1.15B25,2013-04-15 10:48:00,
2013-04-15 06:53:00,51.7,50.6,30.06,SW,221,0.0,1.0,96,0.00,,,0.04,WeatherCatV1.15B25,2013-04-15 10:53:00,
2013-04-15 06:58:00,51.7,50.6,30.06,WNW,290,0.0,0.0,96,0.00,,,0.04,WeatherCatV1.15B25,2013-04-15 10:58:00,
2013-04-15 07:03:00,51.7,50.6,30.06,WNW,290,0.0,0.0,96,0.00,,,0.04,WeatherCatV1.15B25,2013-04-15 11:03:00,
2013-04-15 07:08:00,51.7,50.6,30.06,WNW,290,0.0,0.0,96,0.00,,,0.04,WeatherCatV1.15B25,2013-04-15 11:08:00,
2013-04-15 07:13:00,51.7,50.6,30.06,WNW,290,0.0,0.0,96,0.00,,,0.04,WeatherCatV1.15B25,2013-04-15 11:13:00,
2013-04-15 07:18:00,51.8,50.7,30.07,WNW,290,0.0,0.0,96,0.00,,,0.04,WeatherCatV1.15B25,2013-04-15 11:18:00,
2013-04-15 07:23:00,51.9,50.8,30.07,WNW,290,0.0,0.0,96,0.00,,,0.04,WeatherCatV1.15B25,2013-04-15 11:23:00,
2013-04-15 07:28:00,51.9,50.8,30.08,WNW,290,0.0,0.0,96,0.00,,,0.04,WeatherCatV1.15B25,2013-04-15 11:28:00,
2013-04-15 07:33:00,52.0,50.9,30.08,WNW,290,0.0,0.0,96,0.00,,,0.04,WeatherCatV1.15B25,2013-04-15 11:33:00,
2013-04-15 07:38:00,52.1,51.0,30.08,WNW,290,0.0,0.0,96,0.00,,,0.04,WeatherCatV1.15B25,2013-04-15 11:38:00,
2013-04-15 07:43:00,52.2,51.1,30.08,WNW,290,0.0,0.0,96,0.00,,,0.04,WeatherCatV1.15B25,2013-04-15 11:43:00,
2013-04-15 07:48:00,52.3,51.2,30.08,WNW,290,0.0,0.0,96,0.00,,,0.04,WeatherCatV1.15B25,2013-04-15 11:48:00,
2013-04-15 07:53:00,52.3,51.2,30.09,WNW,290,0.0,0.0,96,0.00,,,0.04,WeatherCatV1.15B25,2013-04-15 11:53:00,
2013-04-15 07:58:00,52.5,51.7,30.09,WNW,290,0.0,0.0,97,0.00,,,0.04,WeatherCatV1.15B25,2013-04-15 11:58:00,
2013-04-15 08:03:00,52.6,51.8,30.10,WNW,290,0.0,0.0,97,0.00,,,0.04,WeatherCatV1.15B25,2013-04-15 12:03:00,
2013-04-15 08:08:00,52.7,51.6,30.09,WNW,290,0.0,0.0,96,0.00,,,0.04,WeatherCatV1.15B25,2013-04-15 12:08:00,
2013-04-15 08:13:00,52.8,51.7,30.10,WNW,290,0.0,0.0,96,0.00,,,0.04,WeatherCatV1.15B25,2013-04-15 12:13:00,
2013-04-15 08:18:00,53.0,51.9,30.10,WNW,290,0.0,0.0,96,0.00,,,0.04,WeatherCatV1.15B25,2013-04-15 12:18:00,
2013-04-15 08:23:00,53.1,51.7,30.10,ENE,62,0.0,0.0,95,0.00,,,0.04,WeatherCatV1.15B25,2013-04-15 12:23:00,
2013-04-15 08:28:00,53.3,52.2,30.10,ENE,62,0.0,0.0,96,0.00,,,0.04,WeatherCatV1.15B25,2013-04-15 12:28:00,
2013-04-15 08:33:00,53.5,52.4,30.10,ENE,62,0.0,0.0,96,0.00,,,0.04,WeatherCatV1.15B25,2013-04-15 12:33:00,
2013-04-15 08:43:00,53.8,52.4,30.10,NW,308,0.0,0.0,95,0.00,,,0.04,WeatherCatV1.15B25,2013-04-15 12:43:00,
2013-04-15 08:48:00,54.0,52.6,30.10,NW,307,0.0,0.0,95,0.00,,,0.04,WeatherCatV1.15B25,2013-04-15 12:48:00,
2013-04-15 08:53:00,54.2,52.8,30.10,WNW,286,0.0,0.0,95,0.00,,,0.04,WeatherCatV1.15B25,2013-04-15 12:53:00,
2013-04-15 08:58:00,54.4,52.7,30.10,WNW,286,0.0,0.0,94,0.00,,,0.04,WeatherCatV1.15B25,2013-04-15 12:58:00,
2013-04-15 09:03:00,54.6,52.9,30.10,WNW,286,0.0,0.0,94,0.00,,,0.04,WeatherCatV1.15B25,2013-04-15 13:03:00,
2013-04-15 09:08:00,54.7,53.0,30.10,WNW,286,0.0,0.0,94,0.00,,,0.04,WeatherCatV1.15B25,2013-04-15 13:08:00,
2013-04-15 09:13:00,54.9,52.9,30.10,WNW,286,0.0,2.0,93,0.00,,,0.04,WeatherCatV1.15B25,2013-04-15 13:13:00,
2013-04-15 09:18:00,55.1,53.1,30.11,WNW,286,0.0,1.0,93,0.00,,,0.04,WeatherCatV1.15B25,2013-04-15 13:18:00,
2013-04-15 09:23:00,55.3,53.0,30.11,WNW,286,0.0,0.0,92,0.00,,,0.04,WeatherCatV1.15B25,2013-04-15 13:23:00,
2013-04-15 09:28:00,55.6,53.3,30.11,SW,233,0.0,0.0,92,0.00,,,0.04,WeatherCatV1.15B25,2013-04-15 13:28:00,
2013-04-15 09:33:00,55.8,53.5,30.11,South,187,0.0,0.0,92,0.00,,,0.04,WeatherCatV1.15B25,2013-04-15 13:33:00,
2013-04-15 09:38:00,56.1,53.5,30.12,East,93,0.0,0.0,91,0.00,,,0.04,WeatherCatV1.15B25,2013-04-15 13:38:00,
2013-04-15 09:43:00,56.4,53.5,30.12,East,84,3.0,3.0,90,0.00,,,0.04,WeatherCatV1.15B25,2013-04-15 13:43:00,
2013-04-15 09:48:00,56.6,54.0,30.12,East,98,0.0,0.0,91,0.00,,,0.04,WeatherCatV1.15B25,2013-04-15 13:48:00,
2013-04-15 09:53:00,56.8,53.6,30.12,East,88,0.0,1.0,89,0.00,,,0.04,WeatherCatV1.15B25,2013-04-15 13:53:00,
2013-04-15 09:58:00,57.0,53.8,30.12,ESE,102,0.0,1.0,89,0.00,,,0.04,WeatherCatV1.15B25,2013-04-15 13:58:00,
2013-04-15 10:03:00,57.1,53.3,30.12,SSE,158,2.0,2.0,87,0.00,,,0.04,WeatherCatV1.15B25,2013-04-15 14:03:00,
2013-04-15 10:08:00,57.2,53.4,30.11,SW,219,0.0,0.0,87,0.00,,,0.04,WeatherCatV1.15B25,2013-04-15 14:08:00,
2013-04-15 10:18:00,57.6,53.8,30.12,SW,225,0.0,2.0,87,0.00,,,0.04,WeatherCatV1.15B25,2013-04-15 14:18:00,
2013-04-15 10:28:00,57.8,53.3,30.12,SSW,205,1.0,2.0,85,0.00,,,0.04,WeatherCatV1.15B25,2013-04-15 14:28:00,
2013-04-15 10:33:00,57.9,52.8,30.12,SSW,209,0.0,0.0,83,0.00,,,0.04,WeatherCatV1.15B25,2013-04-15 14:33:00,
2013-04-15 10:38:00,58.1,53.3,30.12,West,272,1.0,2.0,84,0.00,,,0.04,WeatherCatV1.15B25,2013-04-15 14:38:00,
2013-04-15 10:43:00,58.4,53.3,30.12,WSW,248,3.0,5.0,83,0.00,,,0.04,WeatherCatV1.15B25,2013-04-15 14:43:00,
2013-04-15 10:48:00,58.4,52.9,30.12,West,276,1.0,2.0,82,0.00,,,0.04,WeatherCatV1.15B25,2013-04-15 14:48:00,
2013-04-15 10:53:00,58.4,52.6,30.12,SW,217,2.0,3.0,81,0.00,,,0.04,WeatherCatV1.15B25,2013-04-15 14:53:00,
2013-04-15 10:58:00,58.5,53.0,30.12,SW,236,0.0,6.0,82,0.00,,,0.04,WeatherCatV1.15B25,2013-04-15 14:58:00,
2013-04-15 11:03:00,58.7,53.2,30.13,SW,221,1.0,3.0,82,0.00,,,0.04,WeatherCatV1.15B25,2013-04-15 15:03:00,
2013-04-15 11:08:00,58.9,52.7,30.12,South,182,0.0,2.0,80,0.00,,,0.04,WeatherCatV1.15B25,2013-04-15 15:08:00,
2013-04-15 11:13:00,58.9,52.7,30.12,South,185,1.0,2.0,80,0.00,,,0.04,WeatherCatV1.15B25,2013-04-15 15:13:00,
2013-04-15 11:18:00,59.1,52.6,30.12,ESE,105,1.0,4.0,79,0.00,,,0.04,WeatherCatV1.15B25,2013-04-15 15:18:00,
2013-04-15 11:23:00,59.6,53.1,30.12,South,191,2.0,4.0,79,0.00,,,0.04,WeatherCatV1.15B25,2013-04-15 15:23:00,
2013-04-15 11:38:00,60.4,53.2,30.12,West,263,4.0,5.0,77,0.00,,,0.04,WeatherCatV1.15B25,2013-04-15 15:38:00,
2013-04-15 11:43:00,60.5,53.2,30.13,SW,228,7.0,7.0,77,0.00,,,0.04,WeatherCatV1.15B25,2013-04-15 15:43:00,
2013-04-15 11:48:00,60.6,53.0,30.13,SW,229,3.0,5.0,76,0.00,,,0.04,WeatherCatV1.15B25,2013-04-15 15:48:00,
2013-04-15 11:53:00,60.5,52.9,30.13,SW,227,2.0,3.0,76,0.00,,,0.04,WeatherCatV1.15B25,2013-04-15 15:53:00,
2013-04-15 11:58:00,60.4,52.8,30.14,WSW,243,2.0,2.0,76,0.00,,,0.04,WeatherCatV1.15B25,2013-04-15 15:58:00,
2013-04-15 12:03:00,60.4,52.8,30.14,WSW,239,3.0,4.0,76,0.00,,,0.04,WeatherCatV1.15B25,2013-04-15 16:03:00,
2013-04-15 12:08:00,60.4,53.2,30.14,SW,215,4.0,5.0,77,0.00,,,0.04,WeatherCatV1.15B25,2013-04-15 16:08:00,
2013-04-15 12:13:00,60.4,52.8,30.14,West,262,0.0,4.0,76,0.00,,,0.04,WeatherCatV1.15B25,2013-04-15 16:13:00,
2013-04-15 12:18:00,60.9,52.6,30.13,WSW,257,1.0,6.0,74,0.00,,,0.04,WeatherCatV1.15B25,2013-04-15 16:18:00,
2013-04-15 12:23:00,61.2,53.2,30.14,West,259,4.0,8.0,75,0.00,,,0.04,WeatherCatV1.15B25,2013-04-15 16:23:00,
2013-04-15 12:28:00,61.2,52.8,30.14,WSW,246,2.0,2.0,74,0.00,,,0.04,WeatherCatV1.15B25,2013-04-15 16:28:00,
2013-04-15 12:33:00,61.2,52.5,30.14,West,278,2.0,4.0,73,0.00,,,0.04,WeatherCatV1.15B25,2013-04-15 16:33:00,
2013-04-15 12:38:00,61.8,52.7,30.13,WSW,244,3.0,4.0,72,0.00,,,0.04,WeatherCatV1.15B25,2013-04-15 16:38:00,
2013-04-15 12:43:00,62.1,53.0,30.13,South,182,4.0,6.0,72,0.00,,,0.04,WeatherCatV1.15B25,2013-04-15 16:43:00,
2013-04-15 12:48:00,62.1,53.0,30.13,SW,222,5.0,5.0,72,0.00,,,0.04,WeatherCatV1.15B25,2013-04-15 16:48:00,
2013-04-15 12:53:00,62.3,53.2,30.13,South,172,0.0,1.0,72,0.00,,,0.04,WeatherCatV1.15B25,2013-04-15 16:53:00,
2013-04-15 12:58:00,62.6,53.1,30.13,West,275,1.0,4.0,71,0.00,,,0.04,WeatherCatV1.15B25,2013-04-15 16:58:00,
2013-04-15 13:03:00,62.8,52.5,30.13,West,268,3.0,7.0,69,0.00,,,0.04,WeatherCatV1.15B25,2013-04-15 17:03:00,
2013-04-15 13:08:00,63.3,53.0,30.13,WSW,246,6.0,6.0,69,0.00,,,0.04,WeatherCatV1.15B25,2013-04-15 17:08:00,
2013-04-15 13:13:00,64.4,53.2,30.13,SW,233,3.0,4.0,67,0.00,,,0.04,WeatherCatV1.15B25,2013-04-15 17:13:00,
2013-04-15 13:18:00,64.5,53.7,30.13,ESE,122,0.0,5.0,68,0.00,,,0.04,WeatherCatV1.15B25,2013-04-15 17:18:00,
2013-04-15 13:23:00,64.7,53.1,30.13,ESE,117,2.0,5.0,66,0.00,,,0.04,WeatherCatV1.15B25,2013-04-15 17:23:00,
2013-04-15 13:28:00,65.2,53.5,30.12,NE,38,4.0,4.0,66,0.00,,,0.04,WeatherCatV1.15B25,2013-04-15 17:28:00,
2013-04-15 13:33:00,66.2,54.1,30.13,ENE,67,1.0,2.0,65,0.00,,,0.04,WeatherCatV1.15B25,2013-04-15 17:33:00,
2013-04-15 13:38:00,66.7,52.4,30.13,West,269,2.0,5.0,60,0.00,,,0.04,WeatherCatV1.15B25,2013-04-15 17:38:00,
2013-04-15 13:48:00,65.9,52.5,30.13,West,280,2.0,3.0,62,0.00,,,0.04,WeatherCatV1.15B25,2013-04-15 17:48:00,
2013-04-15 13:53:00,66.2,54.5,30.12,South,170,3.0,3.0,66,0.00,,,0.04,WeatherCatV1.15B25,2013-04-15 17:53:00,
2013-04-15 13:58:00,66.6,52.7,30.13,South,182,3.0,6.0,61,0.00,,,0.04,WeatherCatV1.15B25,2013-04-15 17:58:00,
2013-04-15 14:08:00,67.0,52.2,30.12,NNW,334,3.0,4.0,59,0.00,,,0.04,WeatherCatV1.15B25,2013-04-15 18:08:00,
2013-04-15 14:23:00,68.3,52.9,30.12,SW,217,3.0,8.0,58,0.00,,,0.04,WeatherCatV1.15B25,2013-04-15 18:23:00,
2013-04-15 14:28:00,68.3,52.5,30.13,SW,219,5.0,5.0,57,0.00,,,0.04,WeatherCatV1.15B25,2013-04-15 18:28:00,
2013-04-15 14:33:00,68.6,53.2,30.13,SSE,164,4.0,5.0,58,0.00,,,0.04,WeatherCatV1.15B25,2013-04-15 18:33:00,
2013-04-15 14:38:00,69.2,52.3,30.13,South,177,0.0,6.0,55,0.00,,,0.04,WeatherCatV1.15B25,2013-04-15 18:38:00,
2013-04-15 14:43:00,68.9,52.1,30.13,SSW,212,1.0,5.0,55,0.00,,,0.04,WeatherCatV1.15B25,2013-04-15 18:43:00,
2013-04-15 14:53:00,69.2,51.8,30.13,SSE,159,2.0,14.0,54,0.00,,,0.04,WeatherCatV1.15B25,2013-04-15 18:53:00,
2013-04-15 14:58:00,69.5,52.6,30.12,West,265,0.0,2.0,55,0.00,,,0.04,WeatherCatV1.15B25,2013-04-15 18:58:00,
2013-04-15 15:03:00,69.9,53.0,30.13,ENE,68,5.0,7.0,55,0.00,,,0.04,WeatherCatV1.15B25,2013-04-15 19:03:00,
2013-04-15 15:08:00,69.4,53.0,30.12,SSE,161,1.0,6.0,56,0.00,,,0.04,WeatherCatV1.15B25,2013-04-15 19:08:00,
2013-04-15 15:13:00,68.5,53.1,30.12,West,269,4.0,9.0,58,0.00,,,0.04,WeatherCatV1.15B25,2013-04-15 19:13:00,
2013-04-15 15:18:00,68.4,53.5,30.12,SSW,206,1.0,5.0,59,0.00,,,0.04,WeatherCatV1.15B25,2013-04-15 19:18:00,
2013-04-15 15:23:00,68.6,52.7,30.12,SSW,213,2.0,8.0,57,0.00,,,0.04,WeatherCatV1.15B25,2013-04-15 19:23:00,
2013-04-15 15:28:00,69.0,54.1,30.12,WSW,252,5.0,7.0,59,0.00,,,0.04,WeatherCatV1.15B25,2013-04-15 19:28:00,
2013-04-15 15:33:00,69.1,53.7,30.12,WSW,252,6.0,11.0,58,0.00,,,0.04,WeatherCatV1.15B25,2013-04-15 19:33:00,
2013-04-15 15:38:00,68.9,54.0,30.12,West,271,2.0,9.0,59,0.00,,,0.04,WeatherCatV1.15B25,2013-04-15 19:38:00,
2013-04-15 15:43:00,68.7,53.3,30.12,West,265,10.0,10.0,58,0.00,,,0.04,WeatherCatV1.15B25,2013-04-15 19:43:00,
2013-04-15 15:48:00,68.7,53.3,30.12,WSW,240,11.0,15.0,58,0.00,,,0.04,WeatherCatV1.15B25,2013-04-15 19:48:00,
2013-04-15 15:53:00,68.2,53.3,30.12,WSW,251,5.0,6.0,59,0.00,,,0.04,WeatherCatV1.15B25,2013-04-15 19:53:00,
2013-04-15 16:03:00,68.8,53.9,30.12,SW,218,5.0,8.0,59,0.00,,,0.04,WeatherCatV1.15B25,2013-04-15 20:03:00,
2013-04-15 16:08:00,69.0,54.5,30.12,WNW,296,2.0,7.0,60,0.00,,,0.04,WeatherCatV1.15B25,2013-04-15 20:08:00,
2013-04-15 16:13:00,69.2,54.3,30.12,NNE,12,3.0,4.0,59,0.00,,,0.04,WeatherCatV1.15B25,2013-04-15 20:13:00,
2013-04-15 16:18:00,69.2,53.8,30.12,ESE,118,2.0,5.0,58,0.00,,,0.04,WeatherCatV1.15B25,2013-04-15 20:18:00,
2013-04-15 16:23:00,68.6,53.7,30.12,ENE,72,2.0,11.0,59,0.00,,,0.04,WeatherCatV1.15B25,2013-04-15 20:23:00,
2013-04-15 16:28:00,68.1,54.1,30.12,NNE,26,3.0,4.0,61,0.00,,,0.04,WeatherCatV1.15B25,2013-04-15 20:28:00,
2013-04-15 16:33:00,68.5,54.1,30.12,NE,38,2.0,8.0,60,0.00,,,0.04,WeatherCatV1.15B25,2013-04-15 20:33:00,
2013-04-15 16:38:00,68.3,54.3,30.13,West,271,4.0,8.0,61,0.00,,,0.04,WeatherCatV1.15B25,2013-04-15 20:38:00,
2013-04-15 16:43:00,68.0,54.0,30.13,SW,234,5.0,8.0,61,0.00,,,0.04,WeatherCatV1.15B25,2013-04-15 20:43:00,
2013-04-15 16:48:00,67.2,53.3,30.13,South,190,5.0,7.0,61,0.00,,,0.04,WeatherCatV1.15B25,2013-04-15 20:48:00,
2013-04-15 16:53:00,66.8,53.4,30.13,SSW,196,4.0,13.0,62,0.00,,,0.04,WeatherCatV1.15B25,2013-04-15 20:53:00,
2013-04-15 16:58:00,66.7,53.7,30.13,West,263,4.0,10.0,63,0.00,,,0.04,WeatherCatV1.15B25,2013-04-15 20:58:00,
2013-04-15 17:03:00,66.3,53.7,30.13,SSW,210,5.0,8.0,64,0.00,,,0.04,WeatherCatV1.15B25,2013-04-15 21:03:00,
2013-04-15 17:08:00,66.0,53.9,30.13,WSW,250,2.0,7.0,65,0.00,,,0.04,WeatherCatV1.15B25,2013-04-15 21:08:00,
2013-04-15 17:13:00,65.8,53.7,30.14,WSW,237,5.0,14.0,65,0.00,,,0.04,WeatherCatV1.15B25,2013-04-15 21:13:00,
2013-04-15 17:18:00,65.6,53.5,30.14,West,259,4.0,14.0,65,0.00,,,0.04,WeatherCatV1.15B25,2013-04-15 21:18:00,
2013-04-15 17:23:00,65.6,53.9,30.14,SW,219,3.0,8.0,66,0.00,,,0.04,WeatherCatV1.15B25,2013-04-15 21:23:00,
2013-04-15 17:28:00,65.9,53.8,30.13,SW,232,5.0,7.0,65,0.00,,,0.04,WeatherCatV1.15B25,2013-04-15 21:28:00,
2013-04-15 17:33:00,65.9,53.8,30.13,SSW,194,4.0,9.0,65,0.00,,,0.04,WeatherCatV1.15B25,2013-04-15 21:33:00,
2013-04-15 17:38:00,65.2,53.5,30.13,South,190,7.0,9.0,66,0.00,,,0.04,WeatherCatV1.15B25,2013-04-15 21:38:00,
2013-04-15 17:43:00,64.6,53.0,30.13,NNE,15,3.0,5.0,66,0.00,,,0.04,WeatherCatV1.15B25,2013-04-15 21:43:00,
2013-04-15 17:48:00,64.4,53.2,30.14,NW,304,1.0,5.0,67,0.00,,,0.04,WeatherCatV1.15B25,2013-04-15 21:48:00,
2013-04-15 17:53:00,63.9,53.1,30.14,NW,317,4.0,12.0,68,0.00,,,0.04,WeatherCatV1.15B25,2013-04-15 21:53:00,
2013-04-15 17:58:00,63.1,52.8,30.14,SE,133,3.0,7.0,69,0.00,,,0.04,WeatherCatV1.15B25,2013-04-15 21:58:00,
2013-04-15 18:03:00,62.3,52.4,30.15,West,275,3.0,5.0,70,0.00,,,0.04,WeatherCatV1.15B25,2013-04-15 22:03:00,
2013-04-15 18:08:00,62.0,52.9,30.15,NNE,31,1.0,9.0,72,0.00,,,0.04,WeatherCatV1.15B25,2013-04-15 22:08:00,
2013-04-15 18:13:00,62.1,53.0,30.15,WSW,254,1.0,6.0,72,0.00,,,0.04,WeatherCatV1.15B25,2013-04-15 22:13:00,
2013-04-15 18:18:00,62.0,52.9,30.16,SSW,205,3.0,7.0,72,0.00,,,0.04,WeatherCatV1.15B25,2013-04-15 22:18:00,
2013-04-15 18:23:00,61.9,52.8,30.16,NW,315,8.0,13.0,72,0.00,,,0.04,WeatherCatV1.15B25,2013-04-15 22:23:00,
2013-04-15 18:28:00,61.7,53.0,30.16,West,262,3.0,4.0,73,0.00,,,0.04,WeatherCatV1.15B25,2013-04-15 22:28:00,
2013-04-15 18:33:00,61.7,53.0,30.16,West,262,3.0,8.0,73,0.00,,,0.04,WeatherCatV1.15B25,2013-04-15 22:33:00,
2013-04-15 18:38:00,61.6,53.2,30.16,NNW,332,2.0,4.0,74,0.00,,,0.04,WeatherCatV1.15B25,2013-04-15 22:38:00,
2013-04-15 18:43:00,61.5,52.8,30.16,NW,323,1.0,8.0,73,0.00,,,0.04,WeatherCatV1.15B25,2013-04-15 22:43:00,
2013-04-15 18:48:00,61.5,53.1,30.16,WNW,283,4.0,7.0,74,0.00,,,0.04,WeatherCatV1.15B25,2013-04-15 22:48:00,
2013-04-15 18:53:00,61.4,53.0,30.16,WNW,286,1.0,9.0,74,0.00,,,0.04,WeatherCatV1.15B25,2013-04-15 22:53:00,
2013-04-15 18:58:00,61.1,52.7,30.17,WSW,252,3.0,3.0,74,0.00,,,0.04,WeatherCatV1.15B25,2013-04-15 22:58:00,
2013-04-15 19:03:00,60.8,52.5,30.17,WNW,294,5.0,9.0,74,0.00,,,0.04,WeatherCatV1.15B25,2013-04-15 23:03:00,
2013-04-15 19:08:00,60.5,52.5,30.17,WSW,257,1.0,6.0,75,0.00,,,0.04,WeatherCatV1.15B25,2013-04-15 23:08:00,
2013-04-15 19:13:00,60.2,52.6,30.17,SSW,207,2.0,10.0,76,0.00,,,0.04,WeatherCatV1.15B25,2013-04-15 23:13:00,
2013-04-15 19:18:00,60.0,52.4,30.17,NNW,336,2.0,4.0,76,0.00,,,0.04,WeatherCatV1.15B25,2013-04-15 23:18:00,
2013-04-15 19:23:00,60.0,52.4,30.17,North,349,1.0,7.0,76,0.00,,,0.04,WeatherCatV1.15B25,2013-04-15 23:23:00,
2013-04-15 19:28:00,59.9,52.7,30.17,NNW,342,1.0,4.0,77,0.00,,,0.04,WeatherCatV1.15B25,2013-04-15 23:28:00,
2013-04-15 19:33:00,59.7,52.5,30.17,WSW,238,3.0,4.0,77,0.00,,,0.04,WeatherCatV1.15B25,2013-04-15 23:33:00,
2013-04-15 19:38:00,59.6,52.4,30.18,West,263,5.0,5.0,77,0.00,,,0.04,WeatherCatV1.15B25,2013-04-15 23:38:00,
2013-04-15 19:43:00,59.4,52.5,30.18,WNW,298,4.0,6.0,78,0.00,,,0.04,WeatherCatV1.15B25,2013-04-15 23:43:00,
2013-04-15 19:48:00,59.3,52.4,30.18,WNW,300,3.0,3.0,78,0.00,,,0.04,WeatherCatV1.15B25,2013-04-15 23:48:00,
2013-04-15 19:53:00,59.1,52.2,30.18,NW,311,2.0,4.0,78,0.00,,,0.04,WeatherCatV1.15B25,2013-04-15 23:53:00,
2013-04-15 19:58:00,59.0,52.5,30.18,East,86,1.0,4.0,79,0.00,,,0.04,WeatherCatV1.15B25,2013-04-15 23:58:00,
2013-04-15 20:03:00,58.8,52.3,30.19,North,355,0.0,2.0,79,0.00,,,0.04,WeatherCatV1.15B25,2013-04-16 00:03:00,
2013-04-15 20:08:00,58.8,52.3,30.19,WSW,248,4.0,4.0,79,0.00,,,0.04,WeatherCatV1.15B25,2013-04-16 00:08:00,
2013-04-15 20:13:00,58.7,52.2,30.19,WSW,251,0.0,2.0,79,0.00,,,0.04,WeatherCatV1.15B25,2013-04-16 00:13:00,
2013-04-15 20:18:00,58.7,52.5,30.19,WSW,248,2.0,4.0,80,0.00,,,0.04,WeatherCatV1.15B25,2013-04-16 00:18:00,
2013-04-15 20:23:00,58.8,52.6,30.19,WSW,242,0.0,5.0,80,0.00,,,0.04,WeatherCatV1.15B25,2013-04-16 00:23:00,
2013-04-15 20:28:00,58.8,52.3,30.20,West,268,2.0,3.0,79,0.00,,,0.04,WeatherCatV1.15B25,2013-04-16 00:28:00,
2013-04-15 20:33:00,58.9,52.4,30.20,SW,230,0.0,4.0,79,0.00,,,0.04,WeatherCatV1.15B25,2013-04-16 00:33:00,
2013-04-15 20:38:00,58.9,52.4,30.20,NW,311,1.0,4.0,79,0.00,,,0.04,WeatherCatV1.15B25,2013-04-16 00:38:00,
2013-04-15 20:43:00,58.9,52.4,30.20,WSW,250,0.0,3.0,79,0.00,,,0.04,WeatherCatV1.15B25,2013-04-16 00:43:00,
2013-04-15 20:48:00,58.9,52.4,30.20,SW,221,2.0,5.0,79,0.00,,,0.04,WeatherCatV1.15B25,2013-04-16 00:48:00,
2013-04-15 20:53:00,59.0,52.5,30.20,West,260,5.0,8.0,79,0.00,,,0.04,WeatherCatV1.15B25,2013-04-16 00:53:00,
2013-04-15 20:58:00,59.0,52.1,30.20,North,10,1.0,2.0,78,0.00,,,0.04,WeatherCatV1.15B25,2013-04-16 00:58:00,
2013-04-15 21:03:00,59.1,52.2,30.21,West,271,3.0,4.0,78,0.00,,,0.04,WeatherCatV1.15B25,2013-04-16 01:03:00,
2013-04-15 21:08:00,59.1,52.2,30.21,West,277,3.0,7.0,78,0.00,,,0.04,WeatherCatV1.15B25,2013-04-16 01:08:00,
2013-04-15 21:13:00,59.1,52.2,30.21,WSW,252,1.0,4.0,78,0.00,,,0.04,WeatherCatV1.15B25,2013-04-16 01:13:00,
2013-04-15 21:18:00,59.2,52.7,30.21,SW,223,2.0,4.0,79,0.00,,,0.04,WeatherCatV1.15B25,2013-04-16 01:18:00,
2013-04-15 21:23:00,59.1,52.2,30.21,West,271,2.0,5.0,78,0.00,,,0.04,WeatherCatV1.15B25,2013-04-16 01:23:00,
2013-04-15 21:28:00,59.1,52.2,30.22,WSW,253,1.0,3.0,78,0.00,,,0.04,WeatherCatV1.15B25,2013-04-16 01:28:00,
2013-04-15 21:33:00,59.1,52.6,30.22,WSW,242,3.0,6.0,79,0.00,,,0.04,WeatherCatV1.15B25,2013-04-16 01:33:00,
2013-04-15 21:38:00,59.1,52.6,30.22,NW,318,0.0,3.0,79,0.00,,,0.04,WeatherCatV1.15B25,2013-04-16 01:38:00,
2013-04-15 21:43:00,59.1,52.6,30.22,WSW,244,3.0,4.0,79,0.00,,,0.04,WeatherCatV1.15B25,2013-04-16 01:43:00,
2013-04-15 21:48:00,59.1,52.6,30.23,WSW,242,2.0,4.0,79,0.00,,,0.04,WeatherCatV1.15B25,2013-04-16 01:48:00,
2013-04-15 21:53:00,59.1,52.6,30.23,SW,232,1.0,6.0,79,0.00,,,0.04,WeatherCatV1.15B25,2013-04-16 01:53:00,
2013-04-15 21:58:00,59.1,52.6,30.23,SW,232,3.0,6.0,79,0.00,,,0.04,WeatherCatV1.15B25,2013-04-16 01:58:00,
2013-04-15 22:03:00,59.2,52.7,30.23,WSW,244,4.0,7.0,79,0.00,,,0.04,WeatherCatV1.15B25,2013-04-16 02:03:00,
2013-04-15 22:08:00,59.2,52.7,30.23,SW,225,4.0,4.0,79,0.00,,,0.04,WeatherCatV1.15B25,2013-04-16 02:08:00,
2013-04-15 22:13:00,59.2,52.7,30.23,WSW,258,2.0,4.0,79,0.00,,,0.04,WeatherCatV1.15B25,2013-04-16 02:13:00,
2013-04-15 22:18:00,59.2,52.7,30.23,West,269,0.0,5.0,79,0.00,,,0.04,WeatherCatV1.15B25,2013-04-16 02:18:00,
2013-04-15 22:23:00,59.3,52.8,30.23,West,275,2.0,4.0,79,0.00,,,0.04,WeatherCatV1.15B25,2013-04-16 02:23:00,
2013-04-15 22:28:00,59.3,52.8,30.23,SW,234,0.0,3.0,79,0.00,,,0.04,WeatherCatV1.15B25,2013-04-16 02:28:00,
2013-04-15 22:33:00,59.3,52.8,30.23,West,270,3.0,9.0,79,0.00,,,0.04,WeatherCatV1.15B25,2013-04-16 02:33:00,
2013-04-15 22:38:00,59.3,52.8,30.23,WSW,247,3.0,4.0,79,0.00,,,0.04,WeatherCatV1.15B25,2013-04-16 02:38:00,
2013-04-15 22:43:00,59.3,52.8,30.23,SW,234,3.0,5.0,79,0.00,,,0.04,WeatherCatV1.15B25,2013-04-16 02:43:00,
2013-04-15 22:48:00,59.2,52.7,30.23,WSW,254,3.0,5.0,79,0.00,,,0.04,WeatherCatV1.15B25,2013-04-16 02:48:00,
2013-04-15 22:53:00,59.3,52.8,30.24,West,281,4.0,4.0,79,0.00,,,0.04,WeatherCatV1.15B25,2013-04-16 02:53:00,
2013-04-15 22:58:00,59.3,52.8,30.24,WNW,303,2.0,5.0,79,0.00,,,0.04,WeatherCatV1.15B25,2013-04-16 02:58:00,
2013-04-15 23:03:00,59.3,52.8,30.24,WSW,249,0.0,6.0,79,0.00,,,0.04,WeatherCatV1.15B25,2013-04-16 03:03:00,
2013-04-15 23:08:00,59.3,52.8,30.24,West,264,4.0,5.0,79,0.00,,,0.04,WeatherCatV1.15B25,2013-04-16 03:08:00,
2013-04-15 23:13:00,59.3,53.1,30.24,West,263,2.0,3.0,80,0.00,,,0.04,WeatherCatV1.15B25,2013-04-16 03:13:00,
2013-04-15 23:18:00,59.2,53.0,30.24,West,265,4.0,7.0,80,0.00,,,0.04,WeatherCatV1.15B25,2013-04-16 03:18:00,
2013-04-15 23:23:00,59.1,52.9,30.24,WSW,243,7.0,7.0,80,0.00,,,0.04,WeatherCatV1.15B25,2013-04-16 03:23:00,
2013-04-15 23:28:00,59.1,52.9,30.24,West,263,4.0,5.0,80,0.00,,,0.04,WeatherCatV1.15B25,2013-04-16 03:28:00,
2013-04-15 23:33:00,59.1,52.9,30.24,West,273,2.0,4.0,80,0.00,,,0.04,WeatherCatV1.15B25,2013-04-16 03:33:00,
2013-04-15 23:38:00,59.0,52.8,30.25,WNW,301,2.0,7.0,80,0.00,,,0.04,WeatherCatV1.15B25,2013-04-16 03:38:00,
2013-04-15 23:43:00,58.9,52.7,30.24,SSW,199,2.0,6.0,80,0.00,,,0.04,WeatherCatV1.15B25,2013-04-16 03:43:00,
2013-04-15 23:48:00,58.9,53.1,30.25,WSW,238,2.0,7.0,81,0.00,,,0.04,WeatherCatV1.15B25,2013-04-16 03:48:00,
2013-04-15 23:53:00,58.9,53.1,30.25,WSW,251,1.0,3.0,81,0.00,,,0.04,WeatherCatV1.15B25,2013-04-16 03:53:00,
2013-04-15 23:58:00,58.8,53.0,30.25,SE,138,2.0,2.0,81,0.00,,,0.04,WeatherCatV1.15B25,2013-04-16 03:58:00,